Time;durP1;ratioP1;P1;durP2;ratioP2;P2;SDS_P1;SDS_P2;PMS_P1;PMS_P2;Temp;Humidity;BMP_temperature;BMP_pressure;BME280_temperature;BME280_humidity;BME280_pressure;Samples;Min_cycle;Max_cycle;Signal;HPM_P1;HPM_P2
2022/05/19 00:00:24;;;;;;;1.50;0.80;;;;;;;;;;5033989;28;20037;-80
2022/05/19 00:02:50;;;;;;;2.70;0.68;;;;;;;;;;5033738;28;20025;-82
2022/05/19 00:05:18;;;;;;;1.58;0.65;;;;;;;;;;5033920;28;20468;-82
2022/05/19 00:07:47;;;;;;;2.58;0.82;;;;;;;;;;5033646;28;20472;-82
2022/05/19 00:10:17;;;;;;;1.95;0.60;;;;;;;;;;5033923;28;20026;-82
2022/05/19 00:12:46;;;;;;;2.97;0.60;;;;;;;;;;5032204;28;20022;-82
2022/05/19 00:15:12;;;;;;;2.72;0.80;;;;;;;;;;5032393;28;20029;-81
2022/05/19 00:17:39;;;;;;;1.75;0.50;;;;;;;;;;5033395;28;20029;-81
2022/05/19 00:20:06;;;;;;;1.30;0.70;;;;;;;;;;5033594;28;20112;-80
2022/05/19 00:22:32;;;;;;;2.53;0.70;;;;;;;;;;5033614;28;20387;-81
2022/05/19 00:24:58;;;;;;;5.32;1.05;;;;;;;;;;5033372;28;20036;-81
2022/05/19 00:27:24;;;;;;;2.67;0.70;;;;;;;;;;5033454;28;20487;-81
2022/05/19 00:29:50;;;;;;;1.52;0.50;;;;;;;;;;5033393;28;20031;-81
2022/05/19 00:32:17;;;;;;;2.25;0.60;;;;;;;;;;5033487;28;20094;-81
2022/05/19 00:34:43;;;;;;;2.95;0.70;;;;;;;;;;5031848;28;20029;-83
2022/05/19 00:37:09;;;;;;;1.55;0.63;;;;;;;;;;5033294;28;20030;-82
2022/05/19 00:39:35;;;;;;;2.55;0.70;;;;;;;;;;5033176;28;20487;-82
2022/05/19 00:44:46;;;;;;;2.70;0.90;;;;;;;;;;5033733;28;20067;-82
2022/05/19 00:47:14;;;;;;;2.53;0.88;;;;;;;;;;5033526;28;20052;-83
2022/05/19 00:49:43;;;;;;;2.58;0.63;;;;;;;;;;5033000;28;20036;-83
2022/05/19 00:52:12;;;;;;;3.33;0.82;;;;;;;;;;5031823;28;20021;-83
2022/05/19 00:54:47;;;;;;;2.72;0.50;;;;;;;;;;5031482;28;20116;-82
2022/05/19 00:57:15;;;;;;;;;;;;;;;;;;5032171;28;20112;-82
2022/05/19 00:59:48;;;;;;;1.88;0.65;;;;;;;;;;5031505;28;20268;-83
2022/05/19 01:02:16;;;;;;;1.30;0.70;;;;;;;;;;5031561;28;20052;-82
2022/05/19 01:04:45;;;;;;;2.22;0.90;;;;;;;;;;5032840;28;20036;-82
2022/05/19 01:07:14;;;;;;;3.17;0.82;;;;;;;;;;5031427;28;20519;-82
2022/05/19 01:09:40;;;;;;;2.85;1.48;;;;;;;;;;5032736;28;20105;-83
2022/05/19 01:12:07;;;;;;;9.35;5.90;;;;;;;;;;5032882;28;20376;-82
2022/05/19 01:14:34;;;;;;;21.55;14.85;;;;;;;;;;5031367;28;20029;-81
2022/05/19 01:17:02;;;;;;;1.88;0.90;;;;;;;;;;5032683;28;20029;-82
2022/05/19 01:19:47;;;;;;;2.53;0.98;;;;;;;;;;5032333;28;20041;-82
2022/05/19 01:22:28;;;;;;;3.08;0.70;;;;;;;;;;5032491;28;20025;-83
2022/05/19 01:24:58;;;;;;;2.55;1.40;;;;;;;;;;5031175;28;20033;-81
2022/05/19 01:27:25;;;;;;;4.47;0.80;;;;;;;;;;5032611;28;20026;-82
2022/05/19 01:29:55;;;;;;;4.53;1.50;;;;;;;;;;5032371;28;20029;-82
2022/05/19 01:32:23;;;;;;;1.70;0.90;;;;;;;;;;5032573;28;20022;-83
2022/05/19 01:34:49;;;;;;;2.33;0.70;;;;;;;;;;5032204;28;20032;-81
2022/05/19 01:37:15;;;;;;;2.67;0.73;;;;;;;;;;5032566;28;20025;-83
2022/05/19 01:39:44;;;;;;;0.95;0.70;;;;;;;;;;5032262;28;20499;-83
2022/05/19 01:42:16;;;;;;;2.72;0.80;;;;;;;;;;5032289;28;20057;-83
2022/05/19 01:44:55;;;;;;;1.58;1.02;;;;;;;;;;5021452;28;20030;-83
2022/05/19 01:47:21;;;;;;;2.03;0.70;;;;;;;;;;5022853;28;20022;-83
2022/05/19 01:49:52;;;;;;;4.13;0.90;;;;;;;;;;5021952;28;20048;-84
2022/05/19 01:52:33;;;;;;;2.47;0.60;;;;;;;;;;5028336;28;20476;-83
2022/05/19 01:55:06;;;;;;;2.45;0.80;;;;;;;;;;5032195;28;20025;-83
2022/05/19 01:57:34;;;;;;;2.10;0.80;;;;;;;;;;5031046;28;20409;-82
2022/05/19 02:00:10;;;;;;;2.28;0.80;;;;;;;;;;5035882;28;20497;-83
2022/05/19 02:02:39;;;;;;;2.80;0.80;;;;;;;;;;5034893;28;20115;-83
2022/05/19 02:05:13;;;;;;;2.97;0.70;;;;;;;;;;5035818;28;20029;-84
2022/05/19 02:07:41;;;;;;;3.25;1.05;;;;;;;;;;5036067;28;20025;-83
2022/05/19 02:10:14;;;;;;;1.80;0.60;;;;;;;;;;5034474;28;20370;-83
2022/05/19 02:12:41;;;;;;;3.88;2.10;;;;;;;;;;5034842;28;20032;-82
2022/05/19 02:15:13;;;;;;;3.53;1.73;;;;;;;;;;5035756;28;20391;-83
2022/05/19 02:17:40;;;;;;;3.20;1.52;;;;;;;;;;5035980;28;20472;-83
2022/05/19 02:20:09;;;;;;;2.30;0.90;;;;;;;;;;5034486;28;20087;-83
2022/05/19 02:22:40;;;;;;;2.97;0.90;;;;;;;;;;5035810;28;20091;-83
2022/05/19 02:25:12;;;;;;;2.72;1.00;;;;;;;;;;5035738;28;20029;-83
2022/05/19 02:27:50;;;;;;;3.05;0.90;;;;;;;;;;5034351;28;20079;-83
2022/05/19 02:30:19;;;;;;;3.55;0.73;;;;;;;;;;5035637;28;20057;-83
2022/05/19 02:32:45;;;;;;;1.77;0.60;;;;;;;;;;5034136;28;20025;-82
2022/05/19 02:35:12;;;;;;;2.40;0.50;;;;;;;;;;5035599;28;20073;-82
2022/05/19 02:37:41;;;;;;;1.70;0.85;;;;;;;;;;5016540;28;20034;-83
2022/05/19 02:40:08;;;;;;;4.35;1.75;;;;;;;;;;5014215;28;20137;-83
2022/05/19 02:42:34;;;;;;;2.95;1.25;;;;;;;;;;5015246;28;20100;-83
2022/05/19 02:45:08;;;;;;;3.47;1.17;;;;;;;;;;5014220;28;20044;-83
2022/05/19 02:47:37;;;;;;;1.70;0.90;;;;;;;;;;5015310;28;20029;-85
2022/05/19 02:50:04;;;;;;;4.72;0.93;;;;;;;;;;5014225;28;20061;-82
2022/05/19 02:52:33;;;;;;;1.17;0.50;;;;;;;;;;5015383;28;20053;-83
2022/05/19 02:55:01;;;;;;;2.95;0.90;;;;;;;;;;5015255;28;20022;-83
2022/05/19 02:57:30;;;;;;;2.45;0.80;;;;;;;;;;5014879;28;20476;-81
2022/05/19 02:59:56;;;;;;;1.55;0.70;;;;;;;;;;5015075;28;20182;-80
2022/05/19 03:02:23;;;;;;;2.83;0.75;;;;;;;;;;5015076;28;20022;-81
2022/05/19 03:04:49;;;;;;;1.23;0.60;;;;;;;;;;5015054;28;20030;-81
2022/05/19 03:07:15;;;;;;;1.52;1.08;;;;;;;;;;5015243;28;20026;-81
2022/05/19 03:09:45;;;;;;;2.10;0.77;;;;;;;;;;5013736;28;20469;-83
2022/05/19 03:12:11;;;;;;;1.38;1.00;;;;;;;;;;5013591;28;20026;-83
2022/05/19 03:14:37;;;;;;;1.83;0.90;;;;;;;;;;5013621;28;20029;-83
2022/05/19 03:17:14;;;;;;;2.38;1.02;;;;;;;;;;5013680;28;20022;-84
2022/05/19 03:19:40;;;;;;;6.05;2.13;;;;;;;;;;5013888;28;20038;-83
2022/05/19 03:22:08;;;;;;;4.70;1.00;;;;;;;;;;5014841;28;20030;-82
2022/05/19 03:24:37;;;;;;;3.10;0.90;;;;;;;;;;5014787;28;20109;-82
2022/05/19 03:27:03;;;;;;;2.78;1.00;;;;;;;;;;5014723;28;20030;-82
2022/05/19 03:29:30;;;;;;;5.75;1.35;;;;;;;;;;5014497;28;20032;-82
2022/05/19 03:31:56;;;;;;;31.27;17.98;;;;;;;;;;5015750;28;20041;-81
2022/05/19 03:34:22;;;;;;;3.50;1.85;;;;;;;;;;5014318;28;20445;-81
2022/05/19 03:36:49;;;;;;;5.90;2.78;;;;;;;;;;5016908;28;20477;-81
2022/05/19 03:39:15;;;;;;;3.08;1.00;;;;;;;;;;5014316;28;20036;-82
2022/05/19 03:41:44;;;;;;;1.77;1.23;;;;;;;;;;5014308;28;20085;-81
2022/05/19 03:44:10;;;;;;;3.83;1.20;;;;;;;;;;5013964;28;20457;-82
2022/05/19 03:46:45;;;;;;;3.17;1.00;;;;;;;;;;5014387;28;20461;-84
2022/05/19 03:49:14;;;;;;;2.42;1.00;;;;;;;;;;5014101;28;20033;-82
2022/05/19 03:51:40;;;;;;;2.33;0.90;;;;;;;;;;5012898;28;20034;-83
2022/05/19 03:54:07;;;;;;;2.28;1.10;;;;;;;;;;5014085;28;20030;-82
2022/05/19 03:56:33;;;;;;;2.88;1.00;;;;;;;;;;5012581;28;20049;-82
2022/05/19 03:58:59;;;;;;;1.33;0.98;;;;;;;;;;5032411;28;20549;-82
2022/05/19 04:01:26;;;;;;;2.15;0.90;;;;;;;;;;5033781;28;20538;-81
2022/05/19 04:03:52;;;;;;;1.45;0.80;;;;;;;;;;5032795;28;20033;-83
2022/05/19 04:06:21;;;;;;;4.68;0.90;;;;;;;;;;5033474;28;20021;-83
2022/05/19 04:08:47;;;;;;;1.20;0.70;;;;;;;;;;5032792;28;21052;-83
2022/05/19 04:11:13;;;;;;;2.95;0.90;;;;;;;;;;5033488;28;20029;-83
2022/05/19 04:13:40;;;;;;;6.05;1.30;;;;;;;;;;5032675;28;20029;-82
2022/05/19 04:16:06;;;;;;;4.00;1.67;;;;;;;;;;5032299;28;20487;-81
2022/05/19 04:18:32;;;;;;;2.50;1.55;;;;;;;;;;5031577;28;20107;-84
2022/05/19 04:20:58;;;;;;;2.58;1.13;;;;;;;;;;5033015;28;20036;-82
2022/05/19 04:23:24;;;;;;;2.75;0.77;;;;;;;;;;5033268;28;20061;-84
2022/05/19 04:25:53;;;;;;;1.85;1.20;;;;;;;;;;5033435;28;20030;-82
2022/05/19 04:28:21;;;;;;;1.52;1.00;;;;;;;;;;5032831;28;20033;-84
2022/05/19 04:30:55;;;;;;;1.83;1.27;;;;;;;;;;5033103;28;20025;-80
2022/05/19 04:33:24;;;;;;;5.05;1.85;;;;;;;;;;5032992;28;20033;-79
2022/05/19 04:35:50;;;;;;;3.50;1.10;;;;;;;;;;5033097;28;20033;-81
2022/05/19 04:38:20;;;;;;;3.55;0.98;;;;;;;;;;5032328;28;20048;-81
2022/05/19 04:40:50;;;;;;;2.83;0.93;;;;;;;;;;5033098;28;20476;-80
2022/05/19 04:43:24;;;;;;;2.88;0.90;;;;;;;;;;5032776;28;20085;-81
2022/05/19 04:45:50;;;;;;;;;;;;;;;;;;5032168;28;20373;-81
2022/05/19 04:48:16;;;;;;;2.58;1.35;;;;;;;;;;5032678;28;20327;-83
2022/05/19 04:50:45;;;;;;;5.28;1.00;;;;;;;;;;5032166;28;20380;-82
2022/05/19 04:53:14;;;;;;;2.85;1.40;;;;;;;;;;5032059;28;20064;-85
2022/05/19 04:55:45;;;;;;;2.95;1.10;;;;;;;;;;5031980;28;20037;-81
2022/05/19 04:58:11;;;;;;;3.83;1.38;;;;;;;;;;5031284;28;20032;-82
2022/05/19 05:00:41;;;;;;;5.75;0.98;;;;;;;;;;5032761;28;20049;-84
2022/05/19 05:03:17;;;;;;;2.42;0.80;;;;;;;;;;5032621;28;20032;-82
2022/05/19 05:05:43;;;;;;;2.65;0.80;;;;;;;;;;5031560;28;20120;-83
2022/05/19 05:08:09;;;;;;;4.57;1.00;;;;;;;;;;5030824;28;20022;-84
2022/05/19 05:10:35;;;;;;;3.88;1.00;;;;;;;;;;5032183;28;20017;-84
2022/05/19 05:13:08;;;;;;;6.72;3.65;;;;;;;;;;5032413;28;20033;-83
2022/05/19 05:15:39;;;;;;;3.05;1.27;;;;;;;;;;5030190;28;20041;-84
2022/05/19 05:18:06;;;;;;;4.25;2.50;;;;;;;;;;5032411;28;20052;-80
2022/05/19 05:20:32;;;;;;;17.80;10.05;;;;;;;;;;5031644;28;20055;-82
2022/05/19 05:23:00;;;;;;;3.58;1.67;;;;;;;;;;5031811;28;20029;-87
2022/05/19 05:25:41;;;;;;;2.85;1.30;;;;;;;;;;5032131;28;20038;-83
2022/05/19 05:28:11;;;;;;;2.50;1.00;;;;;;;;;;5031116;28;20487;-84
2022/05/19 05:30:49;;;;;;;2.40;1.38;;;;;;;;;;5031602;28;20388;-83
2022/05/19 05:33:37;;;;;;;7.38;1.50;;;;;;;;;;5012915;28;20568;-83
2022/05/19 05:36:02;;;;;;;4.93;3.35;;;;;;;;;;5029973;28;20404;-82
2022/05/19 05:38:28;;;;;;;2.80;1.50;;;;;;;;;;5027282;28;20072;-82
2022/05/19 05:40:55;;;;;;;1.70;1.02;;;;;;;;;;5029119;28;20381;-82
2022/05/19 05:43:21;;;;;;;1.45;0.88;;;;;;;;;;5027262;28;20057;-83
2022/05/19 05:45:51;;;;;;;3.70;0.95;;;;;;;;;;5030448;28;20100;-82
2022/05/19 05:48:18;;;;;;;1.80;0.90;;;;;;;;;;5030488;28;20157;-82
2022/05/19 05:50:51;;;;;;;1.85;1.20;;;;;;;;;;5029344;28;20029;-83
2022/05/19 05:53:17;;;;;;;4.53;2.92;;;;;;;;;;5029376;28;20032;-81
2022/05/19 05:55:46;;;;;;;2.35;0.90;;;;;;;;;;5019162;28;20026;-83
2022/05/19 05:58:12;;;;;;;1.42;0.77;;;;;;;;;;5030327;28;20045;-81
2022/05/19 06:00:39;;;;;;;5.03;1.52;;;;;;;;;;5030013;28;20029;-80
2022/05/19 06:03:05;;;;;;;3.03;1.73;;;;;;;;;;5030751;28;20547;-81
2022/05/19 06:05:31;;;;;;;8.93;3.65;;;;;;;;;;5030398;28;20488;-81
2022/05/19 06:07:57;;;;;;;9.75;4.65;;;;;;;;;;5028926;28;20503;-82
2022/05/19 06:10:23;;;;;;;3.45;1.65;;;;;;;;;;5030424;28;20029;-82
2022/05/19 06:12:49;;;;;;;3.15;1.60;;;;;;;;;;5028260;28;20075;-81
2022/05/19 06:15:16;;;;;;;106.55;26.35;;;;;;;;;;5014445;28;20030;-81
2022/05/19 06:17:42;;;;;;;80.18;30.98;;;;;;;;;;5009852;28;20117;-81
2022/05/19 06:20:10;;;;;;;209.18;76.22;;;;;;;;;;5009640;28;20030;-82
2022/05/19 06:22:39;;;;;;;97.13;37.63;;;;;;;;;;5010619;28;20522;-82
2022/05/19 06:25:06;;;;;;;75.68;28.73;;;;;;;;;;5010038;28;20038;-83
2022/05/19 06:27:32;;;;;;;53.35;20.23;;;;;;;;;;5010510;28;20475;-84
2022/05/19 06:30:11;;;;;;;;;;;;;;;;;;;;;
2022/05/19 06:32:37;;;;;;;26.27;10.30;;;;;;;;;;5010653;28;20032;-82
2022/05/19 06:35:04;;;;;;;5.13;1.70;;;;;;;;;;5010630;28;20026;-82
2022/05/19 06:37:32;;;;;;;3.38;1.60;;;;;;;;;;5010583;28;20037;-82
2022/05/19 06:39:58;;;;;;;2.75;1.35;;;;;;;;;;5010066;28;20038;-82
2022/05/19 06:42:32;;;;;;;3.17;1.30;;;;;;;;;;5010493;28;20054;-83
2022/05/19 06:44:59;;;;;;;2.83;1.33;;;;;;;;;;5012470;28;20057;-78
2022/05/19 06:47:25;;;;;;;4.38;1.73;;;;;;;;;;5014421;28;20168;-80
2022/05/19 06:49:56;;;;;;;3.70;2.35;;;;;;;;;;5013553;28;20030;-82
2022/05/19 06:52:28;;;;;;;4.22;1.58;;;;;;;;;;5014088;28;20033;-81
2022/05/19 06:54:55;;;;;;;3.63;1.10;;;;;;;;;;5013742;28;20579;-81
2022/05/19 06:57:21;;;;;;;2.83;1.00;;;;;;;;;;5014174;28;20030;-84
2022/05/19 06:59:55;;;;;;;5.32;1.92;;;;;;;;;;5013695;28;20545;-81
2022/05/19 07:02:23;;;;;;;3.17;1.33;;;;;;;;;;5013911;28;20499;-80
2022/05/19 07:04:49;;;;;;;4.18;1.48;;;;;;;;;;5014106;28;20052;-82
2022/05/19 07:07:24;;;;;;;5.43;2.22;;;;;;;;;;5013762;28;20520;-84
2022/05/19 07:09:50;;;;;;;4.80;1.70;;;;;;;;;;5028815;28;20080;-82
2022/05/19 07:12:23;;;;;;;7.00;2.55;;;;;;;;;;5013685;28;20030;-81
2022/05/19 07:14:50;;;;;;;6.20;2.50;;;;;;;;;;5013710;28;20026;-80
2022/05/19 07:17:17;;;;;;;3.92;1.30;;;;;;;;;;5013517;28;20034;-80
2022/05/19 07:22:40;;;;;;;2.72;1.20;;;;;;;;;;5013283;28;20085;-84
2022/05/19 07:25:08;;;;;;;2.88;1.02;;;;;;;;;;5028061;28;20480;-79
2022/05/19 07:27:34;;;;;;;2.72;1.15;;;;;;;;;;5012983;28;20042;-81
2022/05/19 07:30:01;;;;;;;4.95;1.30;;;;;;;;;;5013456;28;20493;-82
2022/05/19 07:32:28;;;;;;;2.22;1.13;;;;;;;;;;5013596;28;20109;-81
2022/05/19 07:34:57;;;;;;;4.13;0.98;;;;;;;;;;5013237;28;20101;-82
2022/05/19 07:37:24;;;;;;;4.40;1.60;;;;;;;;;;5028234;28;20439;-86
2022/05/19 07:39:51;;;;;;;3.05;0.95;;;;;;;;;;5028193;28;20038;-82
2022/05/19 07:42:17;;;;;;;3.22;1.73;;;;;;;;;;5037736;28;20144;-81
2022/05/19 07:44:43;;;;;;;6.13;2.67;;;;;;;;;;5031444;28;20031;-81
2022/05/19 07:47:09;;;;;;;9.10;2.85;;;;;;;;;;5032780;28;20498;-80
2022/05/19 07:49:36;;;;;;;4.85;1.65;;;;;;;;;;5033022;28;20468;-82
2022/05/19 07:52:02;;;;;;;2.08;0.90;;;;;;;;;;5032431;28;20033;-79
2022/05/19 07:54:31;;;;;;;8.25;1.80;;;;;;;;;;5030704;28;20479;-83
2022/05/19 07:56:57;;;;;;;9.68;7.25;;;;;;;;;;5030959;28;20021;-80
2022/05/19 07:59:26;;;;;;;9.13;2.90;;;;;;;;;;5032086;28;20072;-82
2022/05/19 08:01:53;;;;;;;7.82;2.83;;;;;;;;;;5031998;28;20033;-82
2022/05/19 08:04:20;;;;;;;3.67;1.27;;;;;;;;;;5031211;28;20499;-79
2022/05/19 08:06:47;;;;;;;6.45;1.88;;;;;;;;;;5025606;28;20025;-80
2022/05/19 08:11:58;;;;;;;13.70;4.75;;;;;;;;;;5028543;28;20852;-83
2022/05/19 08:17:10;;;;;;;4.45;1.77;;;;;;;;;;5028082;28;20124;-81
2022/05/19 08:19:42;;;;;;;3.30;1.42;;;;;;;;;;5028535;28;20052;-80
2022/05/19 08:22:08;;;;;;;49.53;14.82;;;;;;;;;;5031723;28;20075;-84
2022/05/19 08:24:34;;;;;;;39.03;13.50;;;;;;;;;;5028796;28;20029;-85
2022/05/19 08:27:06;;;;;;;24.92;8.32;;;;;;;;;;5030954;28;20030;-80
2022/05/19 08:29:33;;;;;;;19.08;6.10;;;;;;;;;;5028564;28;20035;-81
2022/05/19 08:32:13;;;;;;;16.70;5.20;;;;;;;;;;5031576;28;20029;-85
2022/05/19 08:34:43;;;;;;;6.40;2.25;;;;;;;;;;5027646;28;20045;-81
2022/05/19 08:37:10;;;;;;;11.95;3.95;;;;;;;;;;5031413;28;20116;-81
2022/05/19 08:39:38;;;;;;;10.88;3.00;;;;;;;;;;5025831;28;20510;-82
2022/05/19 08:42:06;;;;;;;5.68;1.65;;;;;;;;;;5031578;28;20073;-80
2022/05/19 08:44:37;;;;;;;7.85;3.85;;;;;;;;;;5020830;28;20038;-81
2022/05/19 08:47:04;;;;;;;30.75;10.75;;;;;;;;;;5012088;28;20476;-83
2022/05/19 08:49:37;;;;;;;52.90;20.02;;;;;;;;;;5011899;28;20105;-82
2022/05/19 08:52:23;;;;;;;74.50;28.17;;;;;;;;;;5012083;28;20051;-81
2022/05/19 08:54:50;;;;;;;69.60;27.05;;;;;;;;;;5011925;28;20022;-79
2022/05/19 08:57:27;;;;;;;7.90;3.13;;;;;;;;;;5025617;28;20044;-80
2022/05/19 09:00:01;;;;;;;3.90;1.15;;;;;;;;;;5027052;28;20030;-81
2022/05/19 09:02:27;;;;;;;;;;;;;;;;;;5031758;28;20037;-79
2022/05/19 09:04:53;;;;;;;2.72;0.82;;;;;;;;;;5031305;28;19924;-77
2022/05/19 09:10:19;;;;;;;2.42;0.90;;;;;;;;;;5031435;28;20053;-81
2022/05/19 09:12:45;;;;;;;2.88;0.88;;;;;;;;;;5031841;28;20087;-80
2022/05/19 09:15:11;;;;;;;3.72;1.08;;;;;;;;;;5031448;28;20037;-81
2022/05/19 09:17:41;;;;;;;5.45;1.13;;;;;;;;;;5031884;28;20064;-83
2022/05/19 09:20:12;;;;;;;2.00;1.00;;;;;;;;;;5013411;28;20137;-81
2022/05/19 09:22:40;;;;;;;2.17;0.70;;;;;;;;;;5032219;28;20085;-86
2022/05/19 09:25:11;;;;;;;3.65;0.93;;;;;;;;;;5030425;28;20031;-81
2022/05/19 09:27:42;;;;;;;2.60;0.80;;;;;;;;;;5031376;28;20082;-85
2022/05/19 09:30:28;;;;;;;3.63;0.80;;;;;;;;;;5031349;28;20032;-77
2022/05/19 09:32:56;;;;;;;2.63;1.00;;;;;;;;;;5031150;28;20038;-83
2022/05/19 09:35:35;;;;;;;2.60;0.70;;;;;;;;;;5030119;28;20068;-80
2022/05/19 09:38:12;;;;;;;1.52;1.10;;;;;;;;;;5028504;28;20044;-82
2022/05/19 09:40:39;;;;;;;2.38;0.60;;;;;;;;;;5024546;28;20391;-80
2022/05/19 09:43:19;;;;;;;2.78;0.90;;;;;;;;;;5028785;28;20053;-84
2022/05/19 09:45:48;;;;;;;3.70;1.20;;;;;;;;;;5026287;28;20029;-80
2022/05/19 09:48:14;;;;;;;3.33;0.77;;;;;;;;;;5031168;28;20499;-79
2022/05/19 09:50:47;;;;;;;6.57;1.42;;;;;;;;;;5026582;28;20077;-81
2022/05/19 09:53:15;;;;;;;2.97;0.90;;;;;;;;;;5019623;28;20120;-81
2022/05/19 09:55:42;;;;;;;2.67;0.70;;;;;;;;;;5029048;28;20030;-81
2022/05/19 09:58:10;;;;;;;4.18;1.70;;;;;;;;;;5019194;28;20492;-83
2022/05/19 10:00:56;;;;;;;4.70;1.23;;;;;;;;;;5017759;28;20064;-79
2022/05/19 10:03:29;;;;;;;2.03;1.00;;;;;;;;;;5025692;28;20040;-81
2022/05/19 10:05:57;;;;;;;1.63;0.63;;;;;;;;;;5017463;28;20036;-82
2022/05/19 10:08:40;;;;;;;3.08;1.02;;;;;;;;;;5027991;28;20087;-86
2022/05/19 10:11:27;;;;;;;2.65;0.90;;;;;;;;;;5030124;28;20057;-80
2022/05/19 10:13:56;;;;;;;6.30;2.10;;;;;;;;;;5020306;28;20435;-79
2022/05/19 10:16:22;;;;;;;5.55;2.15;;;;;;;;;;5026830;28;20100;-82
2022/05/19 10:19:10;;;;;;;2.35;0.95;;;;;;;;;;5022111;28;20039;-77
2022/05/19 10:21:45;;;;;;;3.05;0.68;;;;;;;;;;5023810;28;20579;-78
2022/05/19 10:24:11;;;;;;;4.18;0.90;;;;;;;;;;5027540;28;20026;-77
2022/05/19 10:26:40;;;;;;;2.78;0.70;;;;;;;;;;5023667;28;20041;-79
2022/05/19 10:32:03;;;;;;;3.75;1.15;;;;;;;;;;5025679;28;20089;-81
2022/05/19 10:34:35;;;;;;;5.53;1.52;;;;;;;;;;5027471;28;20105;-79
2022/05/19 10:37:07;;;;;;;2.72;1.10;;;;;;;;;;5022908;28;20116;-80
2022/05/19 10:39:33;;;;;;;2.90;1.20;;;;;;;;;;5025901;28;20120;-82
2022/05/19 10:42:02;;;;;;;4.20;1.52;;;;;;;;;;5032193;28;20053;-81
2022/05/19 10:44:44;;;;;;;1.40;0.80;;;;;;;;;;5027751;28;20358;-78
2022/05/19 10:47:16;;;;;;;5.18;1.98;;;;;;;;;;5024658;28;20040;-81
2022/05/19 10:49:43;;;;;;;2.38;0.80;;;;;;;;;;5025631;28;20425;-80
2022/05/19 10:52:12;;;;;;;1.77;0.70;;;;;;;;;;5024821;28;20064;-79
2022/05/19 10:54:58;;;;;;;2.50;1.00;;;;;;;;;;5031127;28;20484;-77
2022/05/19 10:57:40;;;;;;;1.77;0.80;;;;;;;;;;5023842;28;20041;-81
2022/05/19 11:00:15;;;;;;;2.50;0.90;;;;;;;;;;5032995;28;20049;-78
2022/05/19 11:03:06;;;;;;;2.05;1.00;;;;;;;;;;5025818;28;20032;-80
2022/05/19 11:05:35;;;;;;;6.03;1.33;;;;;;;;;;5027641;28;20112;-81
2022/05/19 11:08:03;;;;;;;4.53;1.85;;;;;;;;;;5027851;28;20033;-81
2022/05/19 11:10:41;;;;;;;7.35;1.92;;;;;;;;;;5031845;28;20040;-83
2022/05/19 11:13:17;;;;;;;5.55;1.55;;;;;;;;;;5014684;28;20034;-81
2022/05/19 11:15:45;;;;;;;2.42;0.88;;;;;;;;;;5026593;28;20480;-78
2022/05/19 11:18:22;;;;;;;5.13;2.50;;;;;;;;;;5023471;28;20303;-81
2022/05/19 11:21:03;;;;;;;2.28;2.00;;;;;;;;;;5027846;28;20055;-79
2022/05/19 11:23:48;;;;;;;2.78;1.80;;;;;;;;;;5028180;28;20480;-83
2022/05/19 11:26:23;;;;;;;2.05;0.80;;;;;;;;;;5031363;28;20052;-79
2022/05/19 11:29:15;;;;;;;7.32;1.20;;;;;;;;;;5033861;28;20031;-80
2022/05/19 11:31:59;;;;;;;3.70;0.70;;;;;;;;;;5026383;28;20041;-81
2022/05/19 11:34:25;;;;;;;16.52;12.35;;;;;;;;;;5032167;28;20033;-79
2022/05/19 11:36:57;;;;;;;4.85;1.58;;;;;;;;;;5032021;28;20032;-82
2022/05/19 11:39:23;;;;;;;2.95;1.60;;;;;;;;;;5030303;28;20044;-81
2022/05/19 11:41:50;;;;;;;4.75;2.17;;;;;;;;;;5019505;28;20046;-79
2022/05/19 11:44:24;;;;;;;3.17;1.23;;;;;;;;;;5027098;28;20026;-84
2022/05/19 11:47:17;;;;;;;3.10;0.90;;;;;;;;;;5033494;28;20435;-81
2022/05/19 11:55:45;;;;;;;3.58;1.08;;;;;;;;;;5033183;28;20121;-81
2022/05/19 11:58:22;;;;;;;3.08;1.00;;;;;;;;;;5032655;28;20067;-80
2022/05/19 12:00:58;;;;;;;1.77;1.25;;;;;;;;;;5033560;28;20381;-79
2022/05/19 12:03:24;;;;;;;3.30;0.90;;;;;;;;;;5033875;28;20076;-84
2022/05/19 12:09:10;;;;;;;1.85;0.77;;;;;;;;;;5033182;28;20036;-79
2022/05/19 12:11:46;;;;;;;3.00;0.90;;;;;;;;;;5022945;28;20017;-78
2022/05/19 12:17:00;;;;;;;1.85;0.70;;;;;;;;;;5030019;28;20476;-80
2022/05/19 12:19:31;;;;;;;2.42;0.70;;;;;;;;;;5031533;28;20120;-76
2022/05/19 12:21:58;;;;;;;3.35;1.05;;;;;;;;;;5033175;28;20484;-80
2022/05/19 12:24:31;;;;;;;3.33;1.08;;;;;;;;;;5017626;28;20057;-82
2022/05/19 12:27:01;;;;;;;1.30;0.50;;;;;;;;;;5018155;28;20397;-81
2022/05/19 12:29:33;;;;;;;1.70;0.73;;;;;;;;;;5013074;28;20054;-77
2022/05/19 12:32:07;;;;;;;1.63;0.82;;;;;;;;;;5012857;28;20392;-84
2022/05/19 12:34:41;;;;;;;2.38;0.70;;;;;;;;;;5011379;28;20132;-81
2022/05/19 12:37:16;;;;;;;1.87;0.90;;;;;;;;;;5012987;28;20108;-83
2022/05/19 12:39:52;;;;;;;3.35;0.63;;;;;;;;;;5013399;28;20038;-80
2022/05/19 12:42:20;;;;;;;2.72;0.60;;;;;;;;;;5012289;28;20096;-78
2022/05/19 12:44:55;;;;;;;4.55;1.10;;;;;;;;;;5031590;28;20036;-80
2022/05/19 12:47:22;;;;;;;2.25;0.60;;;;;;;;;;5031455;28;20464;-81
2022/05/19 12:50:08;;;;;;;1.15;0.68;;;;;;;;;;5032684;28;20032;-83
2022/05/19 12:52:53;;;;;;;2.60;0.60;;;;;;;;;;5031168;28;20116;-85
2022/05/19 12:55:23;;;;;;;1.70;0.70;;;;;;;;;;5032525;28;20032;-83
2022/05/19 12:57:51;;;;;;;2.00;0.77;;;;;;;;;;5032145;28;20069;-77
2022/05/19 13:00:23;;;;;;;3.88;1.33;;;;;;;;;;5032059;28;20049;-83
2022/05/19 13:03:11;;;;;;;1.60;0.98;;;;;;;;;;5031014;28;20561;-80
2022/05/19 13:05:40;;;;;;;2.75;0.90;;;;;;;;;;5032514;28;20033;-78
2022/05/19 13:08:15;;;;;;;4.30;1.10;;;;;;;;;;5032443;28;20555;-83
2022/05/19 13:10:44;;;;;;;2.08;1.10;;;;;;;;;;5029372;28;20533;-79
2022/05/19 13:13:28;;;;;;;2.75;1.33;;;;;;;;;;5031776;28;20416;-78
2022/05/19 13:15:54;;;;;;;;;;;;;;;;;;5029561;28;20052;-83
2022/05/19 13:18:33;;;;;;;20.27;7.28;;;;;;;;;;5031079;28;20279;-82
2022/05/19 13:21:04;;;;;;;91.35;31.80;;;;;;;;;;5032538;28;20080;-85
2022/05/19 13:23:31;;;;;;;86.15;32.05;;;;;;;;;;5032622;28;20468;-80
2022/05/19 13:26:04;;;;;;;107.55;37.55;;;;;;;;;;5028228;28;20482;-77
2022/05/19 13:31:19;;;;;;;33.78;12.52;;;;;;;;;;5034066;28;20040;-81
2022/05/19 13:33:48;;;;;;;2.50;1.08;;;;;;;;;;5023264;28;20029;-80
2022/05/19 13:36:14;;;;;;;2.95;0.80;;;;;;;;;;5023310;28;20104;-78
2022/05/19 13:38:41;;;;;;;2.03;1.02;;;;;;;;;;5023148;28;20037;-83
2022/05/19 13:41:10;;;;;;;3.60;1.25;;;;;;;;;;5014803;28;20029;-78
2022/05/19 13:43:37;;;;;;;2.17;1.20;;;;;;;;;;5021337;28;20091;-80
2022/05/19 13:46:04;;;;;;;2.92;1.38;;;;;;;;;;5025895;28;20109;-85
2022/05/19 13:48:50;;;;;;;4.70;1.08;;;;;;;;;;5024162;28;20033;-81
2022/05/19 13:51:39;;;;;;;2.20;0.88;;;;;;;;;;5027346;28;20056;-80
2022/05/19 13:54:07;;;;;;;3.10;0.80;;;;;;;;;;5026776;28;20041;-81
2022/05/19 13:56:36;;;;;;;1.98;0.95;;;;;;;;;;5036142;28;20025;-82
2022/05/19 13:59:03;;;;;;;3.17;1.55;;;;;;;;;;5027044;28;20038;-79
2022/05/19 14:01:31;;;;;;;3.20;1.88;;;;;;;;;;5024254;28;20021;-81
2022/05/19 14:03:59;;;;;;;1.30;1.00;;;;;;;;;;5024728;28;20109;-81
2022/05/19 14:06:28;;;;;;;4.72;2.15;;;;;;;;;;5029337;28;20018;-86
2022/05/19 14:08:55;;;;;;;1.80;1.02;;;;;;;;;;5026343;28;20026;-80
2022/05/19 14:11:23;;;;;;;3.33;1.20;;;;;;;;;;5025684;28;20026;-82
2022/05/19 14:13:57;;;;;;;4.38;1.52;;;;;;;;;;5025290;28;20036;-82
2022/05/19 14:16:27;;;;;;;2.75;1.58;;;;;;;;;;5025958;28;20022;-82
2022/05/19 14:18:54;;;;;;;5.10;1.33;;;;;;;;;;5027458;28;20484;-79
2022/05/19 14:21:25;;;;;;;2.17;1.20;;;;;;;;;;5024190;28;20532;-79
2022/05/19 14:23:51;;;;;;;2.58;0.93;;;;;;;;;;5025921;28;20022;-78
2022/05/19 14:26:44;;;;;;;2.17;1.50;;;;;;;;;;5024988;28;20362;-78
2022/05/19 14:29:19;;;;;;;1.80;0.90;;;;;;;;;;5025623;28;20041;-77
2022/05/19 14:31:48;;;;;;;2.53;1.08;;;;;;;;;;5024696;28;20033;-83
2022/05/19 14:34:17;;;;;;;2.63;1.30;;;;;;;;;;5026369;28;20021;-80
2022/05/19 14:36:45;;;;;;;2.67;1.20;;;;;;;;;;5025091;28;20034;-78
2022/05/19 14:39:16;;;;;;;1.90;1.15;;;;;;;;;;5023859;28;20532;-81
2022/05/19 14:44:32;;;;;;;4.47;1.90;;;;;;;;;;5026284;28;20123;-80
2022/05/19 14:47:17;;;;;;;2.75;1.45;;;;;;;;;;5024993;28;20163;-84
2022/05/19 14:49:46;;;;;;;2.08;1.00;;;;;;;;;;5025799;28;20183;-80
2022/05/19 14:52:13;;;;;;;2.10;1.30;;;;;;;;;;5025526;28;20517;-83
2022/05/19 14:54:40;;;;;;;3.75;1.40;;;;;;;;;;5024912;28;20018;-81
2022/05/19 14:57:26;;;;;;;1.95;1.17;;;;;;;;;;5023323;28;20028;-85
2022/05/19 14:59:56;;;;;;;3.17;1.40;;;;;;;;;;5023732;28;20046;-82
2022/05/19 15:02:24;;;;;;;2.42;1.40;;;;;;;;;;5024342;28;20052;-82
2022/05/19 15:04:50;;;;;;;2.97;1.10;;;;;;;;;;5023161;28;20026;-81
2022/05/19 15:07:36;;;;;;;3.17;1.27;;;;;;;;;;5024587;28;20156;-80
2022/05/19 15:10:06;;;;;;;2.13;1.00;;;;;;;;;;5025525;28;20106;-86
2022/05/19 15:12:32;;;;;;;1.98;1.38;;;;;;;;;;5025512;28;20476;-81
2022/05/19 15:14:58;;;;;;;3.92;1.55;;;;;;;;;;5024209;28;20105;-79
2022/05/19 15:17:25;;;;;;;5.88;1.42;;;;;;;;;;5023695;28;20025;-81
2022/05/19 15:19:51;;;;;;;2.22;1.17;;;;;;;;;;5023112;28;20091;-79
2022/05/19 15:22:20;;;;;;;4.18;1.50;;;;;;;;;;5024057;28;20030;-78
2022/05/19 15:27:30;;;;;;;;;;;;;;;;;;5025874;28;20044;-80
2022/05/19 15:29:57;;;;;;;2.38;1.50;;;;;;;;;;5024756;28;19905;-78
2022/05/19 15:32:23;;;;;;;3.88;1.75;;;;;;;;;;5025801;28;20033;-82
2022/05/19 15:34:53;;;;;;;3.85;1.30;;;;;;;;;;5023002;28;20121;-81
2022/05/19 15:37:20;;;;;;;2.00;1.10;;;;;;;;;;5023467;28;20029;-80